< < Back
Terminal Aerodrome Forecast


Current Version              Previous Versions:   1  2  3  4  5  6  7  8  9  

Terminal Aerodrome Forecast

690
FTUS44 KMOB 200500 RRA
TAFMOB
TAF
KMOB 200544Z 2006/2106 06004KT P6SM FEW040
     FM201500 06011KT P6SM SCT040=



Latest METAR

193
SAUS80 KWBC 201200
MTRMOB
METAR KMOB 201156Z 04006KT 10SM FEW005 20/19 A3000 RMK AO2 SLP158 TCU
DSNT S T02000194 10222 20200 53013


USA.gov is the U.S. government's official web portal to all federal, state and local government web resources and services.